sensor_id;sensor_type;location;lat;lon;timestamp;pressure;altitude;pressure_sealevel;temperature;humidity
66273;BME280;58450;52.150;4.466;2023-06-14T00:01:20;101544.91;;;20.59;100.00
66273;BME280;58450;52.150;4.466;2023-06-14T00:03:49;101551.06;;;20.55;100.00
66273;BME280;58450;52.150;4.466;2023-06-14T00:06:18;101546.31;;;20.50;100.00
66273;BME280;58450;52.150;4.466;2023-06-14T00:08:45;101548.00;;;20.51;100.00
66273;BME280;58450;52.150;4.466;2023-06-14T00:11:13;101542.75;;;20.49;100.00
66273;BME280;58450;52.150;4.466;2023-06-14T00:13:40;101545.34;;;20.44;100.00
66273;BME280;58450;52.150;4.466;2023-06-14T00:16:09;101541.81;;;20.44;100.00
66273;BME280;58450;52.150;4.466;2023-06-14T00:18:38;101557.59;;;20.42;100.00
66273;BME280;58450;52.150;4.466;2023-06-14T00:21:05;101550.94;;;20.37;100.00
66273;BME280;58450;52.150;4.466;2023-06-14T00:23:33;101556.28;;;20.32;100.00
66273;BME280;58450;52.150;4.466;2023-06-14T00:26:00;101553.19;;;20.29;100.00
66273;BME280;58450;52.150;4.466;2023-06-14T00:28:28;101555.09;;;20.28;100.00
66273;BME280;58450;52.150;4.466;2023-06-14T00:30:55;101552.00;;;20.25;100.00
66273;BME280;58450;52.150;4.466;2023-06-14T00:33:23;101548.69;;;20.22;100.00
66273;BME280;58450;52.150;4.466;2023-06-14T00:35:53;101549.13;;;20.19;100.00
66273;BME280;58450;52.150;4.466;2023-06-14T00:38:20;101550.69;;;20.15;100.00
66273;BME280;58450;52.150;4.466;2023-06-14T00:40:48;101559.94;;;20.14;100.00
66273;BME280;58450;52.150;4.466;2023-06-14T00:43:15;101553.88;;;20.12;100.00
66273;BME280;58450;52.150;4.466;2023-06-14T00:45:43;101553.28;;;20.10;100.00
66273;BME280;58450;52.150;4.466;2023-06-14T00:48:11;101551.38;;;20.11;100.00
66273;BME280;58450;52.150;4.466;2023-06-14T00:50:39;101558.75;;;20.10;100.00
66273;BME280;58450;52.150;4.466;2023-06-14T00:53:09;101550.63;;;20.03;100.00
66273;BME280;58450;52.150;4.466;2023-06-14T00:55:36;101549.22;;;20.01;100.00
66273;BME280;58450;52.150;4.466;2023-06-14T00:58:04;101551.34;;;19.99;100.00
66273;BME280;58450;52.150;4.466;2023-06-14T01:00:32;101547.75;;;19.98;100.00
66273;BME280;58450;52.150;4.466;2023-06-14T01:02:59;101559.53;;;19.99;100.00
66273;BME280;58450;52.150;4.466;2023-06-14T01:05:27;101542.75;;;19.95;100.00
66273;BME280;58450;52.150;4.466;2023-06-14T01:08:05;101550.34;;;19.93;100.00
66273;BME280;58450;52.150;4.466;2023-06-14T01:10:51;101552.91;;;19.88;100.00
66273;BME280;58450;52.150;4.466;2023-06-14T01:13:28;101549.63;;;19.86;100.00
66273;BME280;58450;52.150;4.466;2023-06-14T01:16:00;101555.28;;;19.84;100.00
66273;BME280;58450;52.150;4.466;2023-06-14T01:18:29;101552.34;;;19.86;100.00
66273;BME280;58450;52.150;4.466;2023-06-14T01:20:57;101554.69;;;19.82;100.00
66273;BME280;58450;52.150;4.466;2023-06-14T01:23:26;101554.09;;;19.80;100.00
66273;BME280;58450;52.150;4.466;2023-06-14T01:25:58;101555.63;;;19.76;100.00
66273;BME280;58450;52.150;4.466;2023-06-14T01:28:29;101561.78;;;19.71;100.00
66273;BME280;58450;52.150;4.466;2023-06-14T01:31:01;101560.34;;;19.69;100.00
66273;BME280;58450;52.150;4.466;2023-06-14T01:33:31;101562.72;;;19.65;100.00
66273;BME280;58450;52.150;4.466;2023-06-14T01:36:01;101557.47;;;19.63;100.00
66273;BME280;58450;52.150;4.466;2023-06-14T01:38:32;101561.97;;;19.58;100.00
66273;BME280;58450;52.150;4.466;2023-06-14T01:41:00;101556.97;;;19.55;100.00
66273;BME280;58450;52.150;4.466;2023-06-14T01:43:30;101556.81;;;19.49;100.00
66273;BME280;58450;52.150;4.466;2023-06-14T01:45:59;101558.47;;;19.51;100.00
66273;BME280;58450;52.150;4.466;2023-06-14T01:48:27;101554.53;;;19.46;100.00
66273;BME280;58450;52.150;4.466;2023-06-14T01:50:55;101560.00;;;19.46;100.00
66273;BME280;58450;52.150;4.466;2023-06-14T01:53:22;101554.41;;;19.41;100.00
66273;BME280;58450;52.150;4.466;2023-06-14T01:55:51;101555.72;;;19.39;100.00
66273;BME280;58450;52.150;4.466;2023-06-14T01:58:20;101550.69;;;19.36;100.00
66273;BME280;58450;52.150;4.466;2023-06-14T02:00:47;101549.03;;;19.34;100.00
66273;BME280;58450;52.150;4.466;2023-06-14T02:03:15;101547.81;;;19.30;100.00
66273;BME280;58450;52.150;4.466;2023-06-14T02:05:43;101546.16;;;19.29;100.00
66273;BME280;58450;52.150;4.466;2023-06-14T02:08:10;101545.56;;;19.27;100.00
66273;BME280;58450;52.150;4.466;2023-06-14T02:10:38;101551.22;;;19.26;100.00
66273;BME280;58450;52.150;4.466;2023-06-14T02:13:07;101545.16;;;19.24;100.00
66273;BME280;58450;52.150;4.466;2023-06-14T02:15:34;101549.19;;;19.21;100.00
66273;BME280;58450;52.150;4.466;2023-06-14T02:18:03;101547.53;;;19.20;100.00
66273;BME280;58450;52.150;4.466;2023-06-14T02:20:31;101549.41;;;19.19;100.00
66273;BME280;58450;52.150;4.466;2023-06-14T02:22:58;101544.19;;;19.18;100.00
66273;BME280;58450;52.150;4.466;2023-06-14T02:25:26;101548.44;;;19.14;100.00
66273;BME280;58450;52.150;4.466;2023-06-14T02:27:54;101545.31;;;19.10;100.00
66273;BME280;58450;52.150;4.466;2023-06-14T02:30:23;101556.66;;;19.07;99.85
66273;BME280;58450;52.150;4.466;2023-06-14T02:32:50;101546.22;;;19.04;99.73
66273;BME280;58450;52.150;4.466;2023-06-14T02:35:19;101542.06;;;19.01;99.85
66273;BME280;58450;52.150;4.466;2023-06-14T02:37:48;101547.16;;;18.98;100.00
66273;BME280;58450;52.150;4.466;2023-06-14T02:40:17;101553.03;;;18.95;99.99
66273;BME280;58450;52.150;4.466;2023-06-14T02:42:44;101550.28;;;18.95;100.00
66273;BME280;58450;52.150;4.466;2023-06-14T02:45:12;101555.16;;;18.93;100.00
66273;BME280;58450;52.150;4.466;2023-06-14T02:47:41;101554.75;;;18.89;100.00
66273;BME280;58450;52.150;4.466;2023-06-14T02:50:09;101558.78;;;18.86;100.00
66273;BME280;58450;52.150;4.466;2023-06-14T02:52:36;101560.44;;;18.87;100.00
66273;BME280;58450;52.150;4.466;2023-06-14T02:55:04;101560.28;;;18.82;99.15
66273;BME280;58450;52.150;4.466;2023-06-14T02:57:34;101557.75;;;18.81;100.00
66273;BME280;58450;52.150;4.466;2023-06-14T03:00:02;101551.94;;;18.77;100.00
66273;BME280;58450;52.150;4.466;2023-06-14T03:02:30;101557.00;;;18.73;100.00
66273;BME280;58450;52.150;4.466;2023-06-14T03:04:59;101558.91;;;18.73;100.00
66273;BME280;58450;52.150;4.466;2023-06-14T03:07:28;101567.53;;;18.70;99.84
66273;BME280;58450;52.150;4.466;2023-06-14T03:09:56;101562.88;;;18.70;100.00
66273;BME280;58450;52.150;4.466;2023-06-14T03:12:23;101570.91;;;18.65;100.00
66273;BME280;58450;52.150;4.466;2023-06-14T03:14:51;101574.06;;;18.62;100.00
66273;BME280;58450;52.150;4.466;2023-06-14T03:17:19;101575.56;;;18.58;100.00
66273;BME280;58450;52.150;4.466;2023-06-14T03:19:46;101572.25;;;18.56;100.00
66273;BME280;58450;52.150;4.466;2023-06-14T03:22:15;101573.53;;;18.53;100.00
66273;BME280;58450;52.150;4.466;2023-06-14T03:24:43;101582.78;;;18.52;100.00
66273;BME280;58450;52.150;4.466;2023-06-14T03:27:10;101580.91;;;18.53;100.00
66273;BME280;58450;52.150;4.466;2023-06-14T03:29:38;101581.94;;;18.52;100.00
66273;BME280;58450;52.150;4.466;2023-06-14T03:32:06;101587.78;;;18.55;100.00
66273;BME280;58450;52.150;4.466;2023-06-14T03:34:35;101592.41;;;18.55;100.00
66273;BME280;58450;52.150;4.466;2023-06-14T03:37:04;101595.34;;;18.53;100.00
66273;BME280;58450;52.150;4.466;2023-06-14T03:39:33;101593.66;;;18.52;100.00
66273;BME280;58450;52.150;4.466;2023-06-14T03:42:01;101599.34;;;18.51;100.00
66273;BME280;58450;52.150;4.466;2023-06-14T03:44:29;101598.31;;;18.52;100.00
66273;BME280;58450;52.150;4.466;2023-06-14T03:46:56;101599.13;;;18.52;100.00
66273;BME280;58450;52.150;4.466;2023-06-14T03:49:24;101597.00;;;18.54;100.00
66273;BME280;58450;52.150;4.466;2023-06-14T03:51:52;101602.47;;;18.54;100.00
66273;BME280;58450;52.150;4.466;2023-06-14T03:54:19;101600.59;;;18.55;100.00
66273;BME280;58450;52.150;4.466;2023-06-14T03:56:48;101607.91;;;18.54;99.92
66273;BME280;58450;52.150;4.466;2023-06-14T03:59:16;101602.69;;;18.53;99.59
66273;BME280;58450;52.150;4.466;2023-06-14T04:01:43;101607.31;;;18.52;99.78
66273;BME280;58450;52.150;4.466;2023-06-14T04:04:12;101606.03;;;18.55;99.64
66273;BME280;58450;52.150;4.466;2023-06-14T04:06:42;101608.97;;;18.53;99.04
66273;BME280;58450;52.150;4.466;2023-06-14T04:09:10;101608.53;;;18.56;99.60
66273;BME280;58450;52.150;4.466;2023-06-14T04:11:37;101612.69;;;18.59;99.34
66273;BME280;58450;52.150;4.466;2023-06-14T04:14:06;101618.09;;;18.66;99.51
66273;BME280;58450;52.150;4.466;2023-06-14T04:16:33;101613.25;;;18.68;98.55
66273;BME280;58450;52.150;4.466;2023-06-14T04:19:01;101626.81;;;18.74;98.55
66273;BME280;58450;52.150;4.466;2023-06-14T04:21:28;101626.16;;;18.79;98.10
66273;BME280;58450;52.150;4.466;2023-06-14T04:23:56;101616.94;;;18.80;97.74
66273;BME280;58450;52.150;4.466;2023-06-14T04:26:23;101614.81;;;18.82;97.61
66273;BME280;58450;52.150;4.466;2023-06-14T04:28:55;101616.84;;;18.87;97.15
66273;BME280;58450;52.150;4.466;2023-06-14T04:31:29;101616.66;;;18.88;96.08
66273;BME280;58450;52.150;4.466;2023-06-14T04:33:59;101614.28;;;18.92;96.33
66273;BME280;58450;52.150;4.466;2023-06-14T04:36:27;101615.16;;;18.93;96.06
66273;BME280;58450;52.150;4.466;2023-06-14T04:38:54;101617.63;;;18.94;95.77
66273;BME280;58450;52.150;4.466;2023-06-14T04:41:22;101619.53;;;18.94;95.28
66273;BME280;58450;52.150;4.466;2023-06-14T04:43:57;101622.47;;;18.99;95.48
66273;BME280;58450;52.150;4.466;2023-06-14T04:46:28;101631.38;;;19.06;95.26
66273;BME280;58450;52.150;4.466;2023-06-14T04:48:58;101626.09;;;19.11;94.83
66273;BME280;58450;52.150;4.466;2023-06-14T04:51:28;101625.66;;;19.14;94.71
66273;BME280;58450;52.150;4.466;2023-06-14T04:53:57;101620.34;;;19.19;94.23
66273;BME280;58450;52.150;4.466;2023-06-14T04:56:24;101622.00;;;19.20;93.37
66273;BME280;58450;52.150;4.466;2023-06-14T04:58:52;101623.22;;;19.25;93.51
66273;BME280;58450;52.150;4.466;2023-06-14T05:01:22;101632.47;;;19.24;93.21
66273;BME280;58450;52.150;4.466;2023-06-14T05:03:51;101632.94;;;19.20;92.71
66273;BME280;58450;52.150;4.466;2023-06-14T05:06:19;101625.97;;;19.25;92.61
66273;BME280;58450;52.150;4.466;2023-06-14T05:08:47;101632.03;;;19.27;92.74
66273;BME280;58450;52.150;4.466;2023-06-14T05:11:14;101626.19;;;19.23;92.24
66273;BME280;58450;52.150;4.466;2023-06-14T05:13:43;101630.34;;;19.26;92.42
66273;BME280;58450;52.150;4.466;2023-06-14T05:16:10;101643.19;;;19.25;91.40
66273;BME280;58450;52.150;4.466;2023-06-14T05:18:38;101633.25;;;19.31;91.42
66273;BME280;58450;52.150;4.466;2023-06-14T05:21:07;101635.16;;;19.30;91.29
66273;BME280;58450;52.150;4.466;2023-06-14T05:23:35;101639.91;;;19.35;90.93
66273;BME280;58450;52.150;4.466;2023-06-14T05:26:02;101645.16;;;19.37;90.76
66273;BME280;58450;52.150;4.466;2023-06-14T05:28:30;101641.59;;;19.36;90.85
66273;BME280;58450;52.150;4.466;2023-06-14T05:30:58;101645.91;;;19.44;90.81
66273;BME280;58450;52.150;4.466;2023-06-14T05:33:25;101644.16;;;19.49;90.48
66273;BME280;58450;52.150;4.466;2023-06-14T05:35:53;101643.88;;;19.58;90.31
66273;BME280;58450;52.150;4.466;2023-06-14T05:38:22;101649.53;;;19.56;88.88
66273;BME280;58450;52.150;4.466;2023-06-14T05:40:50;101647.66;;;19.57;89.16
66273;BME280;58450;52.150;4.466;2023-06-14T05:43:17;101644.31;;;19.55;88.88
66273;BME280;58450;52.150;4.466;2023-06-14T05:45:45;101644.53;;;19.53;88.32
66273;BME280;58450;52.150;4.466;2023-06-14T05:48:12;101645.84;;;19.51;88.56
66273;BME280;58450;52.150;4.466;2023-06-14T05:50:39;101645.28;;;19.60;88.46
66273;BME280;58450;52.150;4.466;2023-06-14T05:53:07;101651.91;;;19.71;88.02
66273;BME280;58450;52.150;4.466;2023-06-14T05:55:36;101656.00;;;19.81;87.20
66273;BME280;58450;52.150;4.466;2023-06-14T05:58:03;101656.06;;;19.92;86.80
66273;BME280;58450;52.150;4.466;2023-06-14T06:00:31;101651.69;;;20.22;86.25
66273;BME280;58450;52.150;4.466;2023-06-14T06:02:58;101665.88;;;20.43;85.21
66273;BME280;58450;52.150;4.466;2023-06-14T06:05:26;101665.81;;;20.61;84.10
66273;BME280;58450;52.150;4.466;2023-06-14T06:07:54;101666.94;;;20.84;83.86
66273;BME280;58450;52.150;4.466;2023-06-14T06:10:21;101660.78;;;21.01;82.88
66273;BME280;58450;52.150;4.466;2023-06-14T06:12:50;101666.50;;;21.11;82.71
66273;BME280;58450;52.150;4.466;2023-06-14T06:15:18;101662.44;;;21.25;82.02
66273;BME280;58450;52.150;4.466;2023-06-14T06:17:45;101664.31;;;21.49;81.27
66273;BME280;58450;52.150;4.466;2023-06-14T06:20:13;101667.53;;;21.46;80.06
66273;BME280;58450;52.150;4.466;2023-06-14T06:22:41;101669.41;;;21.57;79.57
66273;BME280;58450;52.150;4.466;2023-06-14T06:25:08;101674.88;;;21.69;78.07
66273;BME280;58450;52.150;4.466;2023-06-14T06:27:36;101676.53;;;21.82;78.17
66273;BME280;58450;52.150;4.466;2023-06-14T06:30:08;101684.81;;;21.99;77.47
66273;BME280;58450;52.150;4.466;2023-06-14T06:32:36;101677.38;;;22.11;76.35
66273;BME280;58450;52.150;4.466;2023-06-14T06:35:04;101680.56;;;22.20;77.26
66273;BME280;58450;52.150;4.466;2023-06-14T06:37:34;101680.25;;;22.34;75.54
66273;BME280;58450;52.150;4.466;2023-06-14T06:40:02;101686.56;;;22.46;75.30
66273;BME280;58450;52.150;4.466;2023-06-14T06:42:31;101695.63;;;22.64;74.22
66273;BME280;58450;52.150;4.466;2023-06-14T06:44:59;101697.41;;;22.87;74.00
66273;BME280;58450;52.150;4.466;2023-06-14T06:47:28;101691.16;;;23.09;73.06
66273;BME280;58450;52.150;4.466;2023-06-14T06:49:56;101693.63;;;23.10;70.29
66273;BME280;58450;52.150;4.466;2023-06-14T06:52:23;101691.72;;;23.11;71.48
66273;BME280;58450;52.150;4.466;2023-06-14T06:54:50;101699.47;;;23.14;70.65
66273;BME280;58450;52.150;4.466;2023-06-14T06:57:20;101686.88;;;23.35;70.73
66273;BME280;58450;52.150;4.466;2023-06-14T06:59:49;101697.38;;;23.60;70.68
66273;BME280;58450;52.150;4.466;2023-06-14T07:02:17;101704.50;;;23.79;69.42
66273;BME280;58450;52.150;4.466;2023-06-14T07:04:46;101710.09;;;23.89;68.90
66273;BME280;58450;52.150;4.466;2023-06-14T07:07:13;101713.66;;;24.07;68.02
66273;BME280;58450;52.150;4.466;2023-06-14T07:09:41;101719.16;;;24.29;68.23
66273;BME280;58450;52.150;4.466;2023-06-14T07:12:09;101711.97;;;24.55;67.00
66273;BME280;58450;52.150;4.466;2023-06-14T07:14:37;101715.69;;;24.71;66.02
66273;BME280;58450;52.150;4.466;2023-06-14T07:17:05;101717.94;;;24.74;64.54
66273;BME280;58450;52.150;4.466;2023-06-14T07:19:32;101713.41;;;24.63;63.93
66273;BME280;58450;52.150;4.466;2023-06-14T07:22:01;101722.09;;;24.77;64.71
66273;BME280;58450;52.150;4.466;2023-06-14T07:24:29;101714.72;;;24.83;62.79
66273;BME280;58450;52.150;4.466;2023-06-14T07:26:56;101710.38;;;24.92;62.90
66273;BME280;58450;52.150;4.466;2023-06-14T07:29:24;101716.88;;;25.13;62.41
66273;BME280;58450;52.150;4.466;2023-06-14T07:31:52;101722.97;;;25.20;61.42
66273;BME280;58450;52.150;4.466;2023-06-14T07:34:19;101724.31;;;25.18;60.88
66273;BME280;58450;52.150;4.466;2023-06-14T07:36:47;101723.25;;;25.24;59.74
66273;BME280;58450;52.150;4.466;2023-06-14T07:39:16;101721.53;;;25.45;59.24
66273;BME280;58450;52.150;4.466;2023-06-14T07:41:43;101722.00;;;25.37;58.13
66273;BME280;58450;52.150;4.466;2023-06-14T07:44:11;101720.44;;;25.46;57.84
66273;BME280;58450;52.150;4.466;2023-06-14T07:46:39;101720.47;;;25.51;56.16
66273;BME280;58450;52.150;4.466;2023-06-14T07:49:06;101729.75;;;25.93;56.79
66273;BME280;58450;52.150;4.466;2023-06-14T07:51:34;101728.19;;;26.23;55.90
66273;BME280;58450;52.150;4.466;2023-06-14T07:54:03;101738.75;;;26.52;55.35
66273;BME280;58450;52.150;4.466;2023-06-14T07:56:32;101733.50;;;26.77;54.14
66273;BME280;58450;52.150;4.466;2023-06-14T07:58:59;101736.06;;;26.94;53.06
66273;BME280;58450;52.150;4.466;2023-06-14T08:01:27;101741.00;;;27.02;51.53
66273;BME280;58450;52.150;4.466;2023-06-14T08:03:54;101754.25;;;27.10;51.28
66273;BME280;58450;52.150;4.466;2023-06-14T08:06:22;101739.63;;;26.94;50.57
66273;BME280;58450;52.150;4.466;2023-06-14T08:08:49;101749.84;;;27.04;51.26
66273;BME280;58450;52.150;4.466;2023-06-14T08:11:17;101746.81;;;27.11;50.34
66273;BME280;58450;52.150;4.466;2023-06-14T08:13:46;101747.34;;;27.23;49.96
66273;BME280;58450;52.150;4.466;2023-06-14T08:16:13;101743.47;;;27.24;48.54
66273;BME280;58450;52.150;4.466;2023-06-14T08:18:41;101743.72;;;27.43;49.00
66273;BME280;58450;52.150;4.466;2023-06-14T08:21:08;101740.69;;;27.35;48.68
66273;BME280;58450;52.150;4.466;2023-06-14T08:23:36;101748.69;;;27.41;48.80
66273;BME280;58450;52.150;4.466;2023-06-14T08:26:03;101741.72;;;27.75;48.92
66273;BME280;58450;52.150;4.466;2023-06-14T08:28:31;101741.50;;;27.46;47.82
66273;BME280;58450;52.150;4.466;2023-06-14T08:31:00;101746.47;;;27.64;47.72
66273;BME280;58450;52.150;4.466;2023-06-14T08:33:27;101745.22;;;27.96;47.77
66273;BME280;58450;52.150;4.466;2023-06-14T08:35:55;101737.59;;;28.28;48.27
66273;BME280;58450;52.150;4.466;2023-06-14T08:38:23;101741.59;;;28.56;47.69
66273;BME280;58450;52.150;4.466;2023-06-14T08:40:51;101741.84;;;28.55;46.81
66273;BME280;58450;52.150;4.466;2023-06-14T08:43:24;101744.75;;;28.74;45.96
66273;BME280;58450;52.150;4.466;2023-06-14T08:45:54;101740.78;;;28.90;45.91
66273;BME280;58450;52.150;4.466;2023-06-14T08:48:27;101743.47;;;28.16;43.86
66273;BME280;58450;52.150;4.466;2023-06-14T08:50:56;101744.09;;;27.97;45.06
66273;BME280;58450;52.150;4.466;2023-06-14T08:53:28;101746.53;;;28.20;45.84
66273;BME280;58450;52.150;4.466;2023-06-14T08:55:58;101741.66;;;28.46;45.01
66273;BME280;58450;52.150;4.466;2023-06-14T08:58:27;101739.06;;;28.60;44.26
66273;BME280;58450;52.150;4.466;2023-06-14T09:00:57;101744.97;;;28.88;44.89
66273;BME280;58450;52.150;4.466;2023-06-14T09:03:27;101750.19;;;28.89;44.02
66273;BME280;58450;52.150;4.466;2023-06-14T09:05:56;101754.19;;;29.13;43.90
66273;BME280;58450;52.150;4.466;2023-06-14T09:08:25;101740.22;;;28.88;42.92
66273;BME280;58450;52.150;4.466;2023-06-14T09:10:53;101759.00;;;29.26;43.69
66273;BME280;58450;52.150;4.466;2023-06-14T09:13:22;101751.69;;;29.41;43.18
66273;BME280;58450;52.150;4.466;2023-06-14T09:15:49;101751.50;;;29.81;43.04
66273;BME280;58450;52.150;4.466;2023-06-14T09:18:17;101751.81;;;29.79;42.01
66273;BME280;58450;52.150;4.466;2023-06-14T09:20:48;101762.50;;;29.67;40.87
66273;BME280;58450;52.150;4.466;2023-06-14T09:23:20;101763.72;;;30.04;41.36
66273;BME280;58450;52.150;4.466;2023-06-14T09:25:48;101755.72;;;30.02;40.81
66273;BME280;58450;52.150;4.466;2023-06-14T09:28:17;101757.50;;;29.69;39.94
66273;BME280;58450;52.150;4.466;2023-06-14T09:30:46;101755.91;;;29.62;39.32
66273;BME280;58450;52.150;4.466;2023-06-14T09:33:16;101750.13;;;29.59;39.30
66273;BME280;58450;52.150;4.466;2023-06-14T09:35:45;101757.13;;;29.75;39.41
66273;BME280;58450;52.150;4.466;2023-06-14T09:38:14;101755.38;;;30.28;39.80
66273;BME280;58450;52.150;4.466;2023-06-14T09:40:42;101757.00;;;30.48;38.46
66273;BME280;58450;52.150;4.466;2023-06-14T09:43:09;101760.66;;;30.82;38.71
66273;BME280;58450;52.150;4.466;2023-06-14T09:45:38;101754.16;;;31.06;38.17
66273;BME280;58450;52.150;4.466;2023-06-14T09:48:07;101751.75;;;31.18;36.90
66273;BME280;58450;52.150;4.466;2023-06-14T09:50:35;101762.06;;;31.32;36.37
66273;BME280;58450;52.150;4.466;2023-06-14T09:53:05;101755.81;;;31.07;35.39
66273;BME280;58450;52.150;4.466;2023-06-14T09:55:37;101754.75;;;30.89;35.93
66273;BME280;58450;52.150;4.466;2023-06-14T09:58:09;101755.47;;;30.94;35.63
66273;BME280;58450;52.150;4.466;2023-06-14T10:00:39;101757.84;;;31.01;34.94
66273;BME280;58450;52.150;4.466;2023-06-14T10:03:12;101759.06;;;30.95;35.26
66273;BME280;58450;52.150;4.466;2023-06-14T10:05:43;101768.44;;;30.99;34.57
66273;BME280;58450;52.150;4.466;2023-06-14T10:08:14;101753.69;;;30.65;34.61
66273;BME280;58450;52.150;4.466;2023-06-14T10:10:46;101758.25;;;30.94;35.06
66273;BME280;58450;52.150;4.466;2023-06-14T10:13:14;101756.03;;;30.39;34.02
66273;BME280;58450;52.150;4.466;2023-06-14T10:15:56;101764.41;;;30.53;34.41
66273;BME280;58450;52.150;4.466;2023-06-14T10:18:32;101760.06;;;30.28;34.12
66273;BME280;58450;52.150;4.466;2023-06-14T10:21:15;101758.22;;;30.23;34.29
66273;BME280;58450;52.150;4.466;2023-06-14T10:23:50;101755.09;;;30.82;35.48
66273;BME280;58450;52.150;4.466;2023-06-14T10:26:23;101755.03;;;30.87;34.90
66273;BME280;58450;52.150;4.466;2023-06-14T10:29:00;101760.84;;;31.05;33.35
66273;BME280;58450;52.150;4.466;2023-06-14T10:31:41;101752.78;;;31.36;33.69
66273;BME280;58450;52.150;4.466;2023-06-14T10:34:10;101753.91;;;31.49;33.58
66273;BME280;58450;52.150;4.466;2023-06-14T10:36:41;101745.94;;;31.76;32.95
66273;BME280;58450;52.150;4.466;2023-06-14T10:39:16;101756.41;;;31.93;32.85
66273;BME280;58450;52.150;4.466;2023-06-14T10:41:52;101754.56;;;32.02;32.26
66273;BME280;58450;52.150;4.466;2023-06-14T10:44:37;101759.47;;;31.35;32.21
66273;BME280;58450;52.150;4.466;2023-06-14T10:47:13;101758.34;;;31.50;32.28
66273;BME280;58450;52.150;4.466;2023-06-14T10:49:51;101769.78;;;31.35;30.96
66273;BME280;58450;52.150;4.466;2023-06-14T10:52:26;101769.34;;;31.75;31.57
66273;BME280;58450;52.150;4.466;2023-06-14T10:55:10;101765.81;;;31.97;32.05
66273;BME280;58450;52.150;4.466;2023-06-14T10:57:43;101770.50;;;31.27;30.96
66273;BME280;58450;52.150;4.466;2023-06-14T11:00:14;101766.69;;;31.22;31.21
66273;BME280;58450;52.150;4.466;2023-06-14T11:06:14;101759.59;;;32.00;31.41
66273;BME280;58450;52.150;4.466;2023-06-14T11:09:19;101760.16;;;32.39;31.51
66273;BME280;58450;52.150;4.466;2023-06-14T11:12:09;101748.03;;;32.21;30.33
66273;BME280;58450;52.150;4.466;2023-06-14T11:14:39;101756.03;;;32.22;30.08
66273;BME280;58450;52.150;4.466;2023-06-14T11:17:07;101755.78;;;32.47;30.74
66273;BME280;58450;52.150;4.466;2023-06-14T11:19:34;101746.94;;;32.67;30.60
66273;BME280;58450;52.150;4.466;2023-06-14T11:22:02;101745.22;;;32.80;30.17
66273;BME280;58450;52.150;4.466;2023-06-14T11:24:29;101746.19;;;32.98;30.19
66273;BME280;58450;52.150;4.466;2023-06-14T11:26:59;101746.38;;;32.06;29.54
66273;BME280;58450;52.150;4.466;2023-06-14T11:29:29;101743.44;;;32.25;29.92
66273;BME280;58450;52.150;4.466;2023-06-14T11:31:58;101743.31;;;32.07;30.05
66273;BME280;58450;52.150;4.466;2023-06-14T11:34:26;101729.91;;;32.09;30.01
66273;BME280;58450;52.150;4.466;2023-06-14T11:36:53;101748.03;;;32.21;30.32
66273;BME280;58450;52.150;4.466;2023-06-14T11:39:24;101737.44;;;32.46;30.27
66273;BME280;58450;52.150;4.466;2023-06-14T11:41:53;101731.94;;;32.54;29.97
66273;BME280;58450;52.150;4.466;2023-06-14T11:44:21;101742.88;;;32.14;30.10
66273;BME280;58450;52.150;4.466;2023-06-14T11:46:49;101738.81;;;32.20;30.33
66273;BME280;58450;52.150;4.466;2023-06-14T11:49:18;101733.00;;;32.45;30.17
66273;BME280;58450;52.150;4.466;2023-06-14T11:51:46;101727.78;;;32.29;29.52
66273;BME280;58450;52.150;4.466;2023-06-14T11:54:13;101735.75;;;32.22;30.82
66273;BME280;58450;52.150;4.466;2023-06-14T11:56:41;101731.28;;;32.35;30.76
66273;BME280;58450;52.150;4.466;2023-06-14T11:59:09;101742.13;;;32.59;29.90
66273;BME280;58450;52.150;4.466;2023-06-14T12:01:37;101740.13;;;32.82;30.20
66273;BME280;58450;52.150;4.466;2023-06-14T12:04:05;101736.03;;;33.03;29.94
66273;BME280;58450;52.150;4.466;2023-06-14T12:06:34;101748.47;;;32.74;27.55
66273;BME280;58450;52.150;4.466;2023-06-14T12:09:05;101741.66;;;33.43;28.64
66273;BME280;58450;52.150;4.466;2023-06-14T12:11:38;101737.00;;;33.79;28.75
66273;BME280;58450;52.150;4.466;2023-06-14T12:14:07;101733.66;;;34.35;28.16
66273;BME280;58450;52.150;4.466;2023-06-14T12:16:37;101731.38;;;34.45;27.84
66273;BME280;58450;52.150;4.466;2023-06-14T12:19:13;101732.16;;;34.63;26.60
66273;BME280;58450;52.150;4.466;2023-06-14T12:21:46;101737.56;;;34.69;26.86
66273;BME280;58450;52.150;4.466;2023-06-14T12:24:14;101743.66;;;34.00;27.27
66273;BME280;58450;52.150;4.466;2023-06-14T12:26:42;101735.09;;;34.76;27.26
66273;BME280;58450;52.150;4.466;2023-06-14T12:29:09;101732.25;;;35.02;27.10
66273;BME280;58450;52.150;4.466;2023-06-14T12:31:38;101752.16;;;35.57;26.19
66273;BME280;58450;52.150;4.466;2023-06-14T12:34:05;101759.03;;;36.20;25.79
66273;BME280;58450;52.150;4.466;2023-06-14T12:36:34;101760.03;;;36.36;25.77
66273;BME280;58450;52.150;4.466;2023-06-14T12:39:07;101754.44;;;36.58;25.19
66273;BME280;58450;52.150;4.466;2023-06-14T12:41:35;101754.00;;;37.02;25.09
66273;BME280;58450;52.150;4.466;2023-06-14T12:44:04;101754.91;;;37.52;24.94
66273;BME280;58450;52.150;4.466;2023-06-14T12:46:31;101757.66;;;37.15;24.93
66273;BME280;58450;52.150;4.466;2023-06-14T12:48:59;101744.44;;;37.40;23.89
66273;BME280;58450;52.150;4.466;2023-06-14T12:51:26;101746.66;;;36.76;24.75
66273;BME280;58450;52.150;4.466;2023-06-14T12:53:54;101746.09;;;36.28;25.00
66273;BME280;58450;52.150;4.466;2023-06-14T12:56:24;101744.19;;;36.19;25.45
66273;BME280;58450;52.150;4.466;2023-06-14T12:58:52;101738.59;;;35.89;25.50
66273;BME280;58450;52.150;4.466;2023-06-14T13:01:20;101745.31;;;35.97;26.29